Aérodrome :
LOGIN :

S'inscrire | Disclaimer

   EN    FR    IT 

 










Légende :    VFR   VFR Marginal   IFR   IFR Intensif   IFR Très Intensif
Visi : 
Plafond : 
>= 8 km
>= 3000ft
5 à 8 km
1000 à 3000 ft
1500m à 5 km
500 à 1000 ft
800 à 1500m
200 à 500 ft
< 800m
< 200 ft
Symboles :   Orages  Brouillard  Fortes neiges  Fortes précipitations  Vent > 20 kt
SIGMETs :   Divers  Orages  Givrage  Turbulence  Onde Orograph.  Cendres Volcan.






- Altitude de l'aérodrome : 586 ft


LIMN - Cameri Air Force Base

DERNIER METAR :
  • 271455Z 35004KT 9999 SCT040 22/15 Q1017

METARs EXPIRÉS :
  • 271355Z 02007KT 9999 FEW040 22/14 Q1017 RMK BKN SCT080 VIS MIN 9999 BLU
  • 271255Z 01008KT 9999 FEW040 20/16 Q1018 RMK BKN SCT070 BKN100 VIS MIN 9999 BLU
  • 271155Z 36006KT 9999 RA FEW040 20/15 Q1018 RMK OVC SCT080 BKN100 VIS MIN 9999 BLU
  • 271055Z 32005KT 290V360 9999 FEW040 20/15 Q1018

TAF TAF LIMN
Valide du 27 à 15h jusqu'au 28 à 00h UTC


271400Z 2715/2724 03007KT 9999 FEW040 SCT060
PROB40
TEMPO 2715/2718 6000 TSRA SCT025CB



MET'MAP, la Météo Aéronautique d'un coup d'oeil ! - Copyright ORBIFLY Décembre 2007 - Disclaimer

ORBIFLY MET'MAP TEAM :

Programmation & Développement : Alexandra Zaïnal
Sur une idée originale de : Baudouin d'Aumeries
Soutien technique & logistique : Manuel Goepfert
Assistance : Marc-Olivier Méhu




SOURCES & CREDITS :

   NOAA